Time;durP1;ratioP1;P1;durP2;ratioP2;P2;SDS_P1;SDS_P2;PMS_P1;PMS_P2;Temp;Humidity;BMP_temperature;BMP_pressure;BME280_temperature;BME280_humidity;BME280_pressure;Samples;Min_cycle;Max_cycle;Signal;HPM_P1;HPM_P2
2022/11/27 00:02:26;;;;;;;20.58;8.40;;;7.40;99.90;;;;;;6068006;23;88748;-74
2022/11/27 00:04:53;;;;;;;16.70;7.38;;;7.40;99.90;;;;;;6067896;23;88087;-74
2022/11/27 00:07:20;;;;;;;19.70;8.50;;;7.40;99.90;;;;;;6068040;23;88229;-74
2022/11/27 00:09:47;;;;;;;18.05;8.32;;;7.40;99.90;;;;;;6067437;23;91356;-74
2022/11/27 00:12:14;;;;;;;26.67;11.65;;;7.40;99.90;;;;;;6069173;23;88517;-75
2022/11/27 00:14:41;;;;;;;21.85;11.13;;;7.30;99.90;;;;;;6068401;23;88627;-74
2022/11/27 00:17:08;;;;;;;30.58;12.73;;;7.30;99.90;;;;;;6068217;23;88394;-74
2022/11/27 00:19:35;;;;;;;22.20;8.43;;;7.20;99.90;;;;;;6066344;23;104729;-74
2022/11/27 00:22:01;;;;;;;22.25;8.35;;;7.20;99.90;;;;;;6069180;23;88682;-74
2022/11/27 00:24:28;;;;;;;20.85;8.88;;;7.10;99.90;;;;;;6069562;23;88808;-74
2022/11/27 00:26:55;;;;;;;18.00;7.90;;;7.10;99.90;;;;;;6069311;23;88134;-74
2022/11/27 00:29:22;;;;;;;17.48;8.18;;;7.10;99.90;;;;;;6067208;23;90909;-74
2022/11/27 00:31:49;;;;;;;12.20;6.78;;;7.10;99.90;;;;;;6068039;23;89079;-74
2022/11/27 00:34:16;;;;;;;19.58;7.97;;;7.10;99.90;;;;;;6067223;23;92570;-74
2022/11/27 00:36:43;;;;;;;16.35;7.78;;;7.10;99.90;;;;;;6067531;23;90903;-74
2022/11/27 00:39:13;;;;;;;17.08;7.95;;;7.00;99.90;;;;;;6067088;23;89706;-74
2022/11/27 00:41:40;;;;;;;22.17;8.23;;;7.10;99.90;;;;;;6069175;23;89150;-74
2022/11/27 00:44:07;;;;;;;14.85;8.00;;;7.10;99.90;;;;;;6067489;23;88021;-74
2022/11/27 00:46:34;;;;;;;10.63;6.60;;;7.10;99.90;;;;;;6067359;23;98796;-75
2022/11/27 00:49:04;;;;;;;18.73;7.82;;;7.10;99.90;;;;;;6067410;23;89705;-75
2022/11/27 00:51:31;;;;;;;16.02;7.50;;;7.00;99.90;;;;;;6091894;23;91169;-74
2022/11/27 00:53:59;;;;;;;18.35;8.55;;;7.00;99.90;;;;;;6067480;23;89237;-74
2022/11/27 00:56:28;;;;;;;14.40;7.28;;;7.00;99.90;;;;;;6067587;23;90988;-74
2022/11/27 00:58:56;;;;;;;17.70;7.43;;;7.00;99.90;;;;;;6069136;23;88840;-74
2022/11/27 01:01:31;;;;;;;11.48;5.68;;;7.00;99.90;;;;;;6091819;23;88731;-74
2022/11/27 01:04:00;;;;;;;15.57;8.10;;;7.00;99.90;;;;;;6067184;23;90233;-74
2022/11/27 01:06:28;;;;;;;13.35;7.55;;;6.90;99.90;;;;;;6068944;23;88286;-74
2022/11/27 01:08:56;;;;;;;13.65;7.78;;;6.90;99.90;;;;;;6067552;23;88828;-74
2022/11/27 01:11:25;;;;;;;15.60;7.25;;;6.90;99.90;;;;;;6018717;23;91090;-74
2022/11/27 01:13:55;;;;;;;17.25;7.47;;;6.90;99.90;;;;;;6067737;23;88527;-74
2022/11/27 01:16:24;;;;;;;10.40;6.47;;;6.90;99.90;;;;;;6068855;23;88245;-74
2022/11/27 01:18:54;;;;;;;17.30;8.25;;;6.80;99.90;;;;;;6069235;23;88698;-75
2022/11/27 01:21:21;;;;;;;19.52;7.60;;;6.80;99.90;;;;;;6067554;23;90033;-74
2022/11/27 01:23:49;;;;;;;18.30;7.25;;;6.80;99.90;;;;;;6068408;23;103754;-74
2022/11/27 01:26:17;;;;;;;16.02;7.38;;;6.70;99.90;;;;;;6067283;23;91524;-74
2022/11/27 01:28:45;;;;;;;17.85;7.65;;;6.70;99.90;;;;;;6068504;23;89476;-74
2022/11/27 01:31:16;;;;;;;14.73;7.38;;;6.70;99.90;;;;;;6066794;23;89108;-74
2022/11/27 01:33:45;;;;;;;16.40;8.20;;;6.70;99.90;;;;;;6069174;23;87873;-74
2022/11/27 01:36:13;;;;;;;15.75;8.50;;;6.60;99.90;;;;;;6091255;23;90838;-74
2022/11/27 01:38:41;;;;;;;20.95;9.20;;;6.60;99.90;;;;;;6069071;23;88504;-74
2022/11/27 01:41:18;;;;;;;14.95;7.07;;;6.60;99.90;;;;;;6069032;23;88544;-74
2022/11/27 01:43:49;;;;;;;17.55;7.63;;;6.60;99.90;;;;;;6067307;23;90221;-74
2022/11/27 01:46:42;;;;;;;19.45;7.57;;;6.60;99.90;;;;;;6092200;23;89358;-74
2022/11/27 01:49:09;;;;;;;19.73;8.07;;;6.50;99.90;;;;;;6069005;23;88879;-74
2022/11/27 01:51:39;;;;;;;12.45;6.80;;;6.50;99.90;;;;;;6068953;23;88361;-74
2022/11/27 01:54:08;;;;;;;19.48;6.95;;;6.50;99.90;;;;;;6068631;23;88699;-74
2022/11/27 01:56:37;;;;;;;18.65;8.15;;;6.40;99.90;;;;;;6068144;23;104759;-74
2022/11/27 01:59:04;;;;;;;14.70;8.50;;;6.40;99.90;;;;;;6067015;23;89825;-74
2022/11/27 02:01:31;;;;;;;18.58;8.52;;;6.40;99.90;;;;;;6068608;23;88054;-74
2022/11/27 02:04:00;;;;;;;16.15;6.80;;;6.40;99.90;;;;;;6091865;23;88551;-74
2022/11/27 02:06:28;;;;;;;14.18;7.72;;;6.30;99.90;;;;;;6068594;23;88222;-74
2022/11/27 02:08:55;;;;;;;13.90;7.15;;;6.30;99.90;;;;;;6068787;23;88528;-74
2022/11/27 02:11:41;;;;;;;17.45;7.68;;;6.30;99.90;;;;;;6067525;23;87503;-74
2022/11/27 02:14:17;;;;;;;13.95;8.00;;;6.40;99.90;;;;;;6068876;23;88041;-74
2022/11/27 02:17:39;;;;;;;14.60;6.75;;;6.30;99.90;;;;;;6068801;23;88322;-74
2022/11/27 02:20:36;;;;;;;17.60;7.80;;;6.30;99.90;;;;;;6062168;23;89553;-74
2022/11/27 02:23:28;;;;;;;9.50;6.45;;;6.20;99.90;;;;;;6067092;23;90654;-74
2022/11/27 02:26:23;;;;;;;15.82;7.22;;;6.20;99.90;;;;;;6068863;23;87996;-74
2022/11/27 02:29:03;;;;;;;12.23;6.65;;;6.20;99.90;;;;;;6068698;23;88508;-74
2022/11/27 02:31:39;;;;;;;16.00;6.63;;;6.20;99.90;;;;;;6066680;23;88642;-74
2022/11/27 02:34:44;;;;;;;17.55;7.80;;;6.20;99.90;;;;;;6068728;23;88705;-74
2022/11/27 02:37:19;;;;;;;16.17;6.95;;;6.20;99.90;;;;;;6091645;23;89065;-74
2022/11/27 02:39:58;;;;;;;13.40;7.70;;;6.10;99.90;;;;;;6069123;23;87465;-74
2022/11/27 02:42:30;;;;;;;9.48;6.50;;;6.10;99.90;;;;;;6066913;23;91738;-74
2022/11/27 02:45:01;;;;;;;15.20;7.63;;;6.00;99.90;;;;;;6091241;23;94344;-74
2022/11/27 02:47:30;;;;;;;23.65;7.30;;;6.10;99.90;;;;;;6066472;23;88743;-74
2022/11/27 02:49:58;;;;;;;11.43;5.88;;;6.10;99.90;;;;;;6067069;23;88449;-74
2022/11/27 02:52:27;;;;;;;12.65;6.57;;;6.10;99.90;;;;;;6066343;23;91204;-74
2022/11/27 02:54:59;;;;;;;9.32;6.22;;;6.00;99.90;;;;;;6067365;23;88754;-74
2022/11/27 02:57:28;;;;;;;14.88;6.45;;;6.00;99.90;;;;;;6091288;23;87960;-74
2022/11/27 02:59:56;;;;;;;15.90;7.00;;;6.00;99.90;;;;;;6066302;23;96390;-74
2022/11/27 03:02:31;;;;;;;11.65;5.55;;;6.00;99.90;;;;;;6066637;23;88740;-74
2022/11/27 03:05:01;;;;;;;16.35;6.55;;;6.00;99.90;;;;;;6091738;23;93877;-74
2022/11/27 03:07:37;;;;;;;10.13;5.30;;;6.00;99.90;;;;;;6066363;23;90262;-74
2022/11/27 03:10:18;;;;;;;11.02;5.75;;;6.00;99.90;;;;;;6066536;23;89071;-74
2022/11/27 03:12:47;;;;;;;12.57;6.65;;;5.90;99.90;;;;;;6090382;23;91909;-74
2022/11/27 03:15:14;;;;;;;13.95;7.25;;;6.00;99.90;;;;;;6068227;23;89316;-74
2022/11/27 03:18:09;;;;;;;13.20;6.38;;;6.00;99.90;;;;;;6066485;23;87988;-74
2022/11/27 03:20:40;;;;;;;14.35;6.32;;;6.00;99.90;;;;;;6091014;23;88378;-74
2022/11/27 03:23:07;;;;;;;14.80;6.70;;;6.00;99.90;;;;;;6091077;23;91268;-74
2022/11/27 03:25:33;;;;;;;12.10;4.90;;;6.00;99.90;;;;;;6090826;23;91609;-74
2022/11/27 03:28:04;;;;;;;9.50;5.30;;;6.10;99.90;;;;;;6066759;23;87956;-74
2022/11/27 03:30:31;;;;;;;7.47;5.25;;;6.10;99.90;;;;;;6067995;23;88326;-74
2022/11/27 03:32:59;;;;;;;10.25;5.68;;;6.10;99.90;;;;;;6068082;23;88934;-74
2022/11/27 03:35:27;;;;;;;8.40;5.72;;;6.10;99.90;;;;;;6069370;23;88607;-74
2022/11/27 03:37:55;;;;;;;13.55;5.85;;;6.20;99.90;;;;;;6069238;23;88684;-74
2022/11/27 03:40:29;;;;;;;12.85;6.30;;;6.20;99.90;;;;;;6069575;23;88342;-74
2022/11/27 03:43:12;;;;;;;10.60;5.57;;;6.30;99.90;;;;;;6069612;23;88664;-74
2022/11/27 03:46:05;;;;;;;16.48;5.97;;;6.20;99.90;;;;;;6067765;23;91231;-74
2022/11/27 03:48:42;;;;;;;10.02;5.28;;;6.30;99.90;;;;;;6092283;23;87958;-74
2022/11/27 03:51:24;;;;;;;9.32;4.47;;;6.30;99.90;;;;;;6092363;23;89315;-74
2022/11/27 03:54:14;;;;;;;13.13;4.90;;;6.30;99.90;;;;;;6069443;23;89936;-74
2022/11/27 03:56:50;;;;;;;11.75;6.50;;;6.40;99.90;;;;;;6068100;23;92612;-74
2022/11/27 03:59:24;;;;;;;12.00;5.30;;;6.40;99.90;;;;;;6068083;23;88048;-74
2022/11/27 04:01:51;;;;;;;8.60;4.90;;;6.40;99.90;;;;;;6092036;23;89821;-74
2022/11/27 04:04:18;;;;;;;10.18;5.45;;;6.40;99.90;;;;;;6067473;23;89571;-74
2022/11/27 04:06:45;;;;;;;9.57;5.28;;;6.40;99.90;;;;;;6067700;23;89450;-74
2022/11/27 04:09:12;;;;;;;14.93;4.93;;;6.40;99.90;;;;;;6067962;23;89379;-74
2022/11/27 04:11:39;;;;;;;10.18;4.45;;;6.40;99.90;;;;;;6043406;23;90566;-74
2022/11/27 04:14:06;;;;;;;14.43;5.75;;;6.40;99.90;;;;;;6092281;23;90031;-74
2022/11/27 04:16:33;;;;;;;7.53;4.47;;;6.40;99.90;;;;;;6067642;23;88624;-74
2022/11/27 04:19:00;;;;;;;11.82;4.85;;;6.40;99.90;;;;;;6069494;23;87957;-74
2022/11/27 04:21:27;;;;;;;13.98;4.45;;;6.40;99.90;;;;;;6067500;23;105631;-74
2022/11/27 04:23:54;;;;;;;13.35;5.05;;;6.40;99.90;;;;;;6067358;23;91302;-74
2022/11/27 04:26:22;;;;;;;12.52;6.03;;;6.40;99.90;;;;;;6067661;23;88517;-74
2022/11/27 04:28:49;;;;;;;13.30;6.43;;;6.50;99.90;;;;;;6067252;23;88723;-74
2022/11/27 04:31:16;;;;;;;10.63;5.22;;;6.50;99.90;;;;;;6066970;23;90622;-75
2022/11/27 04:33:43;;;;;;;13.43;5.55;;;6.40;99.90;;;;;;6067630;23;88588;-74
2022/11/27 04:36:10;;;;;;;11.50;4.85;;;6.40;99.90;;;;;;6067979;23;91297;-74
2022/11/27 04:38:37;;;;;;;8.93;4.75;;;6.40;99.90;;;;;;6069160;23;88032;-74
2022/11/27 04:41:04;;;;;;;11.50;5.30;;;6.40;99.90;;;;;;6067584;23;91246;-74
2022/11/27 04:43:31;;;;;;;8.38;4.85;;;6.40;99.90;;;;;;6067719;23;91014;-74
2022/11/27 04:45:57;;;;;;;9.68;5.00;;;6.40;99.90;;;;;;6068084;23;91116;-74
2022/11/27 04:48:24;;;;;;;10.38;5.43;;;6.40;99.90;;;;;;6068993;23;95921;-74
2022/11/27 04:50:54;;;;;;;11.02;4.57;;;6.40;99.90;;;;;;6043386;23;88397;-74
2022/11/27 04:53:21;;;;;;;10.50;5.10;;;6.40;99.90;;;;;;6068833;23;89380;-74
2022/11/27 04:55:49;;;;;;;11.80;4.93;;;6.40;99.90;;;;;;6091809;23;90676;-74
2022/11/27 04:58:16;;;;;;;9.73;5.13;;;6.40;99.90;;;;;;6069317;23;87937;-74
2022/11/27 05:00:43;;;;;;;12.43;4.70;;;6.40;99.90;;;;;;6067503;23;87989;-74
2022/11/27 05:03:10;;;;;;;10.77;4.65;;;6.50;99.90;;;;;;6067367;23;93050;-74
2022/11/27 05:05:37;;;;;;;9.93;4.45;;;6.50;99.90;;;;;;6067117;23;90975;-74
2022/11/27 05:08:04;;;;;;;12.02;5.00;;;6.50;99.90;;;;;;6067937;23;88435;-74
2022/11/27 05:10:31;;;;;;;9.35;5.25;;;6.50;99.90;;;;;;6068123;23;90780;-74
2022/11/27 05:12:58;;;;;;;9.55;4.65;;;6.50;99.90;;;;;;6068881;23;89053;-74
2022/11/27 05:15:25;;;;;;;11.38;5.10;;;6.60;99.90;;;;;;6069086;23;89116;-74
2022/11/27 05:17:52;;;;;;;13.30;5.22;;;6.60;99.90;;;;;;6067753;23;104816;-74
2022/11/27 05:20:19;;;;;;;8.00;5.13;;;6.60;99.90;;;;;;6091968;23;91336;-74
2022/11/27 05:22:48;;;;;;;14.60;5.15;;;6.60;99.90;;;;;;6068900;23;88770;-74
2022/11/27 05:25:15;;;;;;;9.23;5.13;;;6.60;99.90;;;;;;6068172;23;88676;-74
2022/11/27 05:27:42;;;;;;;10.02;5.03;;;6.60;99.90;;;;;;6067204;23;89320;-74
2022/11/27 05:30:09;;;;;;;13.20;5.53;;;6.70;99.90;;;;;;6067335;23;90928;-74
2022/11/27 05:32:36;;;;;;;15.00;5.60;;;6.60;99.90;;;;;;6067264;23;88753;-75
2022/11/27 05:35:03;;;;;;;11.80;5.50;;;6.60;99.90;;;;;;6069324;23;88521;-74
2022/11/27 05:37:30;;;;;;;11.18;5.47;;;6.60;99.90;;;;;;6069096;23;88018;-74
2022/11/27 05:39:57;;;;;;;8.52;4.57;;;6.70;99.90;;;;;;6068827;23;88303;-74
2022/11/27 05:42:24;;;;;;;9.30;5.05;;;6.60;99.90;;;;;;6067034;23;89631;-74
2022/11/27 05:44:51;;;;;;;8.93;4.57;;;6.50;99.90;;;;;;6068830;23;89408;-74
2022/11/27 05:47:23;;;;;;;5.65;3.78;;;6.50;99.90;;;;;;6069135;23;87924;-74
2022/11/27 05:49:50;;;;;;;12.65;5.60;;;6.50;99.90;;;;;;6091090;23;99489;-74
2022/11/27 05:52:17;;;;;;;11.07;5.30;;;6.50;99.90;;;;;;6067474;23;88832;-74
2022/11/27 05:54:44;;;;;;;8.88;4.80;;;6.60;99.90;;;;;;6068759;23;88375;-74
2022/11/27 05:57:11;;;;;;;10.00;4.88;;;6.50;99.90;;;;;;6091522;23;89452;-74
2022/11/27 05:59:38;;;;;;;7.63;4.60;;;6.50;99.90;;;;;;6067844;23;90821;-74
2022/11/27 06:02:05;;;;;;;14.13;5.10;;;6.50;99.90;;;;;;6042754;23;89794;-74
2022/11/27 06:04:35;;;;;;;8.65;4.32;;;6.40;99.90;;;;;;6069094;23;88638;-74
2022/11/27 06:07:02;;;;;;;12.40;4.68;;;6.40;99.90;;;;;;6068270;23;88729;-74
2022/11/27 06:09:29;;;;;;;8.10;4.80;;;6.40;99.90;;;;;;6068876;23;88410;-74
2022/11/27 06:11:56;;;;;;;12.02;4.55;;;6.40;99.90;;;;;;6067008;23;88001;-74
2022/11/27 06:14:23;;;;;;;11.60;4.80;;;6.40;99.90;;;;;;6067082;23;96721;-74
2022/11/27 06:16:50;;;;;;;8.90;5.53;;;6.40;99.90;;;;;;6068679;23;88381;-74
2022/11/27 06:19:17;;;;;;;7.00;4.72;;;6.30;99.90;;;;;;6067438;23;88289;-74
2022/11/27 06:21:45;;;;;;;11.68;5.50;;;6.40;99.90;;;;;;6067309;23;87994;-74
2022/11/27 06:24:12;;;;;;;9.75;4.95;;;6.40;99.90;;;;;;6069186;23;88462;-74
2022/11/27 06:26:39;;;;;;;9.07;4.45;;;6.40;99.90;;;;;;6068963;23;88444;-74
2022/11/27 06:29:06;;;;;;;7.10;4.72;;;6.40;99.90;;;;;;6066752;23;89366;-74
2022/11/27 06:31:33;;;;;;;5.80;4.45;;;6.30;99.90;;;;;;6066322;23;92063;-74
2022/11/27 06:34:00;;;;;;;10.60;4.78;;;6.30;99.90;;;;;;6066984;23;89181;-74
2022/11/27 06:36:30;;;;;;;9.73;5.15;;;6.40;99.90;;;;;;6068972;23;88376;-74
2022/11/27 06:38:58;;;;;;;9.07;4.95;;;6.40;99.90;;;;;;6068717;23;88332;-74
2022/11/27 06:41:26;;;;;;;7.15;5.13;;;6.40;99.90;;;;;;6091451;23;90538;-74
2022/11/27 06:43:54;;;;;;;14.82;5.07;;;6.40;99.90;;;;;;6066120;23;105773;-74
2022/11/27 06:46:22;;;;;;;10.75;5.05;;;6.40;99.90;;;;;;6068695;23;87965;-74
2022/11/27 06:48:51;;;;;;;8.80;4.93;;;6.40;99.90;;;;;;6069005;23;88330;-74
2022/11/27 06:51:20;;;;;;;7.78;3.95;;;6.40;99.90;;;;;;6091354;23;88500;-74
2022/11/27 06:53:47;;;;;;;10.80;5.53;;;6.40;99.90;;;;;;6091319;23;89471;-74
2022/11/27 06:56:18;;;;;;;8.00;5.10;;;6.40;99.90;;;;;;6067888;23;88659;-74
2022/11/27 06:58:45;;;;;;;11.45;5.45;;;6.40;99.90;;;;;;6091390;23;88443;-74
2022/11/27 07:01:15;;;;;;;10.90;5.10;;;6.40;99.90;;;;;;6066700;23;88792;-74
2022/11/27 07:03:42;;;;;;;8.40;5.35;;;6.50;99.90;;;;;;6068404;23;87904;-74
2022/11/27 07:06:12;;;;;;;7.93;4.03;;;6.50;99.90;;;;;;6090866;23;89153;-74
2022/11/27 07:08:39;;;;;;;9.70;5.13;;;6.50;99.90;;;;;;6067292;23;88383;-74
2022/11/27 07:11:17;;;;;;;9.77;5.25;;;6.50;99.90;;;;;;6069347;23;88645;-74
2022/11/27 07:13:48;;;;;;;10.50;5.10;;;6.50;99.90;;;;;;6068581;23;90933;-74
2022/11/27 07:16:17;;;;;;;11.10;4.45;;;6.50;99.90;;;;;;6069536;23;87922;-74
2022/11/27 07:18:51;;;;;;;10.85;6.22;;;6.50;99.90;;;;;;6069137;23;101729;-74
2022/11/27 07:21:19;;;;;;;7.80;5.22;;;6.50;99.90;;;;;;6068964;23;89427;-74
2022/11/27 07:23:46;;;;;;;11.05;5.43;;;6.50;99.90;;;;;;6091703;23;107601;-74
2022/11/27 07:26:18;;;;;;;9.25;5.18;;;6.50;99.90;;;;;;6068000;23;87934;-75
2022/11/27 07:28:46;;;;;;;8.93;5.15;;;6.50;99.90;;;;;;6068178;23;88450;-74
2022/11/27 07:31:19;;;;;;;11.70;4.80;;;6.60;99.90;;;;;;6067143;23;92735;-74
2022/11/27 07:33:47;;;;;;;9.55;4.97;;;6.60;99.90;;;;;;6069550;23;91578;-74
2022/11/27 07:36:16;;;;;;;8.18;5.28;;;6.60;99.90;;;;;;6069381;23;87894;-74
2022/11/27 07:38:44;;;;;;;7.10;4.82;;;6.60;99.90;;;;;;6070018;23;88309;-74
2022/11/27 07:41:12;;;;;;;9.27;4.95;;;6.70;99.90;;;;;;6067437;23;91477;-74
2022/11/27 07:43:41;;;;;;;9.10;4.70;;;6.70;99.90;;;;;;6069595;23;87939;-74
2022/11/27 07:46:17;;;;;;;8.18;4.78;;;6.70;99.90;;;;;;6069132;23;89268;-74
2022/11/27 07:48:44;;;;;;;8.57;5.03;;;6.80;99.90;;;;;;6092662;23;91116;-74
2022/11/27 07:51:13;;;;;;;7.97;4.70;;;6.80;99.90;;;;;;6067455;23;92071;-74
2022/11/27 07:53:41;;;;;;;6.97;4.90;;;6.80;99.90;;;;;;6069571;23;88719;-74
2022/11/27 07:56:10;;;;;;;8.52;5.05;;;6.80;99.90;;;;;;6092116;23;88295;-74
2022/11/27 07:58:37;;;;;;;10.77;5.43;;;6.90;99.90;;;;;;6067347;23;99632;-74
2022/11/27 08:01:08;;;;;;;8.05;4.00;;;6.90;99.90;;;;;;6069187;23;88960;-74
2022/11/27 08:03:36;;;;;;;9.38;5.18;;;6.90;99.90;;;;;;6070036;23;88563;-74
2022/11/27 08:06:04;;;;;;;12.35;4.88;;;6.90;99.90;;;;;;6067579;23;89570;-74
2022/11/27 08:08:31;;;;;;;9.75;4.90;;;7.00;99.90;;;;;;6068096;23;88217;-74
2022/11/27 08:10:58;;;;;;;6.57;4.90;;;6.90;99.90;;;;;;6043314;23;88747;-74
2022/11/27 08:13:25;;;;;;;8.25;5.03;;;7.00;99.90;;;;;;6069102;23;89398;-74
2022/11/27 08:15:52;;;;;;;11.50;5.60;;;7.00;99.90;;;;;;6067861;23;89262;-74
2022/11/27 08:18:19;;;;;;;8.40;5.03;;;7.00;99.90;;;;;;6069171;23;88357;-74
2022/11/27 08:20:46;;;;;;;6.70;3.83;;;7.10;99.90;;;;;;6068842;23;96518;-74
2022/11/27 08:23:13;;;;;;;8.80;5.10;;;7.10;99.90;;;;;;6069109;23;87996;-74
2022/11/27 08:25:40;;;;;;;5.78;4.60;;;7.10;99.90;;;;;;6068102;23;88658;-74
2022/11/27 08:28:07;;;;;;;7.93;5.03;;;7.10;99.90;;;;;;6069647;23;88324;-74
2022/11/27 08:30:34;;;;;;;8.45;5.10;;;7.00;99.90;;;;;;6069388;23;88835;-74
2022/11/27 08:33:01;;;;;;;9.38;5.65;;;7.10;99.90;;;;;;6068898;23;88461;-74
2022/11/27 08:35:28;;;;;;;6.18;4.32;;;7.20;99.90;;;;;;6067119;23;89329;-74
2022/11/27 08:37:55;;;;;;;7.25;4.88;;;7.30;99.90;;;;;;6069573;23;87999;-74
2022/11/27 08:40:22;;;;;;;8.43;4.13;;;7.40;99.90;;;;;;6069056;23;88827;-74
2022/11/27 08:42:49;;;;;;;7.38;4.82;;;7.40;99.90;;;;;;6068877;23;98586;-74
2022/11/27 08:45:16;;;;;;;7.40;4.78;;;7.40;99.90;;;;;;6067656;23;89300;-74
2022/11/27 08:47:43;;;;;;;8.93;5.53;;;7.50;99.90;;;;;;6069073;23;88360;-74
2022/11/27 08:50:10;;;;;;;8.98;7.03;;;7.50;99.90;;;;;;6069053;23;88614;-74
2022/11/27 08:52:37;;;;;;;11.80;6.10;;;7.60;99.90;;;;;;6067863;23;91064;-74
2022/11/27 08:55:04;;;;;;;9.63;5.57;;;7.70;99.90;;;;;;6067848;23;87906;-74
2022/11/27 08:57:31;;;;;;;7.15;4.75;;;7.70;99.90;;;;;;6067445;23;88185;-74
2022/11/27 08:59:58;;;;;;;10.43;5.50;;;7.60;99.90;;;;;;6068752;23;89599;-74
2022/11/27 09:02:25;;;;;;;11.80;5.13;;;7.60;99.90;;;;;;6068882;23;88125;-74
2022/11/27 09:04:52;;;;;;;8.40;5.07;;;7.70;99.90;;;;;;6067628;23;88557;-74
2022/11/27 09:07:19;;;;;;;10.27;5.35;;;7.70;99.90;;;;;;6069167;23;88308;-74
2022/11/27 09:09:46;;;;;;;9.98;5.78;;;7.70;99.90;;;;;;6068792;23;97534;-74
2022/11/27 09:12:13;;;;;;;13.32;7.05;;;7.70;99.90;;;;;;6067144;23;91082;-74
2022/11/27 09:14:40;;;;;;;13.85;5.93;;;7.70;99.90;;;;;;6092183;23;88461;-74
2022/11/27 09:17:07;;;;;;;9.68;5.00;;;7.60;99.90;;;;;;6068111;23;87325;-74
2022/11/27 09:19:34;;;;;;;7.85;4.88;;;7.70;99.90;;;;;;6067400;23;88830;-75
2022/11/27 09:22:01;;;;;;;9.98;5.45;;;7.70;99.90;;;;;;6092028;23;88625;-75
2022/11/27 09:24:28;;;;;;;12.25;6.30;;;7.60;99.90;;;;;;6068517;23;88767;-74
2022/11/27 09:26:55;;;;;;;9.52;6.35;;;7.60;99.90;;;;;;6091823;23;93992;-74
2022/11/27 09:29:22;;;;;;;9.00;5.28;;;7.60;99.90;;;;;;6068770;23;88831;-74
2022/11/27 09:31:49;;;;;;;5.53;4.35;;;7.60;99.90;;;;;;6090746;23;88637;-74
2022/11/27 09:34:17;;;;;;;8.52;5.63;;;7.60;99.90;;;;;;6069048;23;88515;-74
2022/11/27 09:36:44;;;;;;;9.77;5.30;;;7.60;99.90;;;;;;6069040;23;88019;-74
2022/11/27 09:39:12;;;;;;;9.32;4.65;;;7.70;99.90;;;;;;6067508;23;89909;-74
2022/11/27 09:41:47;;;;;;;8.90;5.38;;;7.70;99.90;;;;;;6068079;23;88495;-74
2022/11/27 09:44:23;;;;;;;8.63;5.43;;;7.80;99.90;;;;;;6091849;23;89103;-75
2022/11/27 09:46:53;;;;;;;12.10;5.40;;;7.80;99.90;;;;;;6067817;23;89497;-75
2022/11/27 09:49:32;;;;;;;8.70;5.28;;;7.80;99.90;;;;;;6066367;23;92073;-74
2022/11/27 09:52:21;;;;;;;9.63;5.80;;;7.90;99.90;;;;;;6067316;23;91901;-75
2022/11/27 09:55:14;;;;;;;10.30;6.28;;;8.00;99.90;;;;;;6069138;23;88243;-74
2022/11/27 09:57:42;;;;;;;9.52;5.93;;;8.00;99.90;;;;;;6068942;23;87892;-74
2022/11/27 10:00:18;;;;;;;7.80;5.00;;;7.90;99.90;;;;;;6043234;23;89045;-74
2022/11/27 10:02:45;;;;;;;14.48;7.30;;;7.90;99.90;;;;;;6068910;23;88645;-74
2022/11/27 10:05:25;;;;;;;12.73;7.88;;;7.80;99.90;;;;;;6068997;23;88015;-75
2022/11/27 10:08:22;;;;;;;9.65;7.40;;;7.90;99.90;;;;;;6092471;23;88338;-74
2022/11/27 10:11:00;;;;;;;11.27;6.28;;;7.70;99.90;;;;;;6069034;23;88709;-74
2022/11/27 10:13:55;;;;;;;8.02;5.78;;;7.70;99.90;;;;;;6068574;23;87998;-74
2022/11/27 10:16:45;;;;;;;9.85;6.60;;;7.80;99.90;;;;;;6066713;23;89270;-74
2022/11/27 10:19:41;;;;;;;8.48;6.22;;;7.70;99.90;;;;;;6039085;23;88253;-75
2022/11/27 10:22:27;;;;;;;8.88;5.30;;;7.80;99.90;;;;;;6068851;23;87943;-75
2022/11/27 10:25:19;;;;;;;8.93;6.05;;;7.80;99.90;;;;;;6068759;23;88602;-74
2022/11/27 10:28:31;;;;;;;9.20;6.03;;;7.70;99.90;;;;;;6068892;23;87878;-74
2022/11/27 10:31:37;;;;;;;9.30;6.28;;;7.80;99.90;;;;;;6007632;23;88276;-74
2022/11/27 10:34:36;;;;;;;13.77;10.10;;;7.80;99.90;;;;;;6008052;23;88496;-74
2022/11/27 10:37:38;;;;;;;19.30;14.70;;;7.70;99.90;;;;;;6090971;23;89143;-74
2022/11/27 10:40:07;;;;;;;10.98;6.72;;;7.70;99.90;;;;;;6066169;23;91260;-74
2022/11/27 10:42:43;;;;;;;14.23;6.82;;;7.60;99.90;;;;;;6068676;23;88475;-75
2022/11/27 10:45:36;;;;;;;17.00;8.52;;;7.70;99.90;;;;;;6069347;23;89477;-74
2022/11/27 10:48:04;;;;;;;11.95;8.30;;;7.60;99.90;;;;;;6068208;23;89412;-74
2022/11/27 10:50:32;;;;;;;9.85;7.60;;;7.60;99.90;;;;;;6069623;23;87973;-75
2022/11/27 10:53:03;;;;;;;9.25;6.38;;;7.70;99.90;;;;;;6069411;23;94988;-74
2022/11/27 10:55:43;;;;;;;11.27;7.28;;;7.70;99.90;;;;;;6069597;23;88658;-75
2022/11/27 10:58:31;;;;;;;13.07;8.18;;;7.70;99.90;;;;;;6069831;23;88549;-75
2022/11/27 11:01:09;;;;;;;11.15;7.35;;;7.70;99.90;;;;;;6093034;23;89179;-75
2022/11/27 11:03:36;;;;;;;13.30;7.95;;;7.70;99.90;;;;;;6068349;23;90954;-74
2022/11/27 11:06:07;;;;;;;8.25;5.88;;;7.70;99.90;;;;;;6068247;23;88551;-74
2022/11/27 11:09:16;;;;;;;13.18;6.10;;;7.70;99.90;;;;;;6092463;23;91275;-74
2022/11/27 11:11:44;;;;;;;12.45;6.25;;;7.70;99.90;;;;;;6068960;23;88724;-74
2022/11/27 11:14:16;;;;;;;12.57;6.97;;;7.60;99.90;;;;;;6092547;23;88280;-75
2022/11/27 11:16:44;;;;;;;10.02;6.72;;;7.70;99.90;;;;;;6068020;23;88698;-75
2022/11/27 11:19:34;;;;;;;11.73;6.38;;;7.70;99.90;;;;;;6092238;23;91261;-75
2022/11/27 11:22:12;;;;;;;10.13;6.10;;;7.70;99.90;;;;;;6069701;23;88045;-75
2022/11/27 11:24:46;;;;;;;10.00;7.00;;;7.70;99.90;;;;;;6069663;23;88517;-75
2022/11/27 11:27:20;;;;;;;12.48;5.97;;;7.80;99.90;;;;;;6068194;23;88875;-75
2022/11/27 11:29:50;;;;;;;11.00;6.38;;;7.80;99.90;;;;;;6068432;23;88194;-75
2022/11/27 11:32:25;;;;;;;12.10;5.47;;;7.80;99.90;;;;;;6091967;23;87997;-75
2022/11/27 11:35:16;;;;;;;10.82;7.03;;;7.80;99.90;;;;;;6069264;23;93136;-75
2022/11/27 11:37:45;;;;;;;13.02;8.25;;;7.80;99.90;;;;;;6067431;23;92135;-75
2022/11/27 11:40:11;;;;;;;10.18;7.70;;;7.80;99.90;;;;;;6091990;23;90832;-75
2022/11/27 11:43:01;;;;;;;8.27;6.70;;;7.80;99.90;;;;;;6067404;23;89690;-75
2022/11/27 11:45:30;;;;;;;11.23;7.75;;;7.90;99.90;;;;;;6069606;23;88283;-74
2022/11/27 11:48:24;;;;;;;11.65;7.03;;;7.90;99.90;;;;;;6069615;23;88788;-75
2022/11/27 11:50:57;;;;;;;13.68;7.57;;;8.00;99.90;;;;;;6061862;23;87898;-75
2022/11/27 11:53:32;;;;;;;12.13;7.67;;;7.90;99.90;;;;;;6069588;23;87924;-75
2022/11/27 11:56:27;;;;;;;10.88;7.55;;;7.90;99.90;;;;;;6069734;23;88231;-75
2022/11/27 11:59:11;;;;;;;11.05;7.03;;;8.00;99.90;;;;;;6069327;23;88028;-75
2022/11/27 12:02:19;;;;;;;13.32;8.05;;;8.00;99.90;;;;;;6092257;23;88684;-75
2022/11/27 12:05:03;;;;;;;12.68;7.78;;;8.00;99.90;;;;;;6067507;23;89279;-75
2022/11/27 12:07:57;;;;;;;13.70;7.20;;;7.90;99.90;;;;;;6067946;23;90976;-75
2022/11/27 12:10:44;;;;;;;12.05;6.97;;;8.00;99.90;;;;;;6065838;23;91425;-75
2022/11/27 12:13:11;;;;;;;12.23;6.63;;;8.00;99.90;;;;;;6067811;23;91146;-75
2022/11/27 12:15:57;;;;;;;15.70;8.38;;;8.00;99.90;;;;;;6069261;23;87927;-75
2022/11/27 12:18:27;;;;;;;16.20;8.63;;;8.10;99.90;;;;;;6069416;23;88388;-75
2022/11/27 12:21:32;;;;;;;12.10;8.10;;;8.10;99.90;;;;;;6067760;23;91397;-75
2022/11/27 12:24:30;;;;;;;10.02;6.35;;;8.10;99.90;;;;;;6035718;23;87563;-75
2022/11/27 12:27:10;;;;;;;38.92;26.00;;;8.10;99.90;;;;;;6069215;23;87896;-75
2022/11/27 12:30:06;;;;;;;15.98;10.90;;;8.10;99.90;;;;;;6066762;23;88485;-75
2022/11/27 12:32:54;;;;;;;18.05;15.02;;;8.20;99.90;;;;;;6067730;23;89549;-75
2022/11/27 12:35:36;;;;;;;16.02;14.30;;;8.20;99.90;;;;;;6091220;23;92158;-75
2022/11/27 12:38:13;;;;;;;42.75;38.65;;;8.10;99.90;;;;;;6091146;23;91797;-75
2022/11/27 12:40:45;;;;;;;28.55;21.70;;;8.20;99.90;;;;;;6066320;23;89204;-75
2022/11/27 12:43:18;;;;;;;26.92;20.58;;;8.20;99.90;;;;;;6068382;23;88667;-75
2022/11/27 12:46:03;;;;;;;22.20;19.60;;;8.30;99.90;;;;;;6066581;23;92040;-75
2022/11/27 12:48:41;;;;;;;29.45;26.35;;;8.30;99.90;;;;;;6068438;23;88765;-75
2022/11/27 12:51:12;;;;;;;19.45;17.50;;;8.20;99.90;;;;;;6068642;23;88353;-75
2022/11/27 12:53:49;;;;;;;11.80;10.25;;;8.30;99.90;;;;;;6068252;23;88762;-75
2022/11/27 12:56:24;;;;;;;17.30;15.57;;;8.30;99.90;;;;;;6091213;23;91878;-75
2022/11/27 12:59:13;;;;;;;14.32;9.25;;;8.30;99.90;;;;;;6067818;23;89086;-75
2022/11/27 13:01:46;;;;;;;15.95;14.35;;;8.30;99.90;;;;;;6069470;23;88321;-74
2022/11/27 13:04:23;;;;;;;11.55;8.57;;;8.30;99.90;;;;;;6066749;23;88722;-75
2022/11/27 13:07:17;;;;;;;10.85;8.05;;;8.30;99.90;;;;;;6068292;23;87904;-75
2022/11/27 13:09:52;;;;;;;10.17;8.40;;;8.30;99.90;;;;;;6069087;23;87995;-75
2022/11/27 13:12:27;;;;;;;14.20;8.70;;;8.40;99.90;;;;;;6067625;23;88371;-75
2022/11/27 13:15:00;;;;;;;12.48;7.07;;;8.30;99.90;;;;;;6068905;23;88605;-75
2022/11/27 13:17:40;;;;;;;9.77;7.95;;;8.30;99.90;;;;;;6069640;23;88651;-74
2022/11/27 13:20:27;;;;;;;12.70;8.48;;;8.40;99.90;;;;;;6069004;23;87881;-75